• Join FlightAware (Why Join?)
  • Login
  • US Flag 
03:11AM EDT


 

Airport Tracker/Info


-or-


 

Live Flight TrackerFlight Track Log ✈ SWA1202 ✈ 03-May-2013 ✈ KLAX - KSJC

Flight Track Log - Related Links

Times and Time Zones

All times are in EDT time to prevent confusion due to time zone crossing. See the SWA1202 flight status page for this flight to view local times or setup timezone preferences in your user account.

Time Position Orientation Groundspeed Altitude Reporting Facility
EDT Latitude Longitude Course Direction KTS MPH feet Rate Location/Type
06:10PM 33.9372 -118.5378 264° West 222 255 4,200  Level Los Angeles Center
06:11PM 33.9072 -118.6081 243° Southwest 251 289 7,100 2,640 Climbing Los Angeles Center
06:12PM 33.8567 -118.6833 231° Southwest 280 322 9,700 2,100 Climbing Los Angeles Center
06:13PM 33.8472 -118.7906 264° West 328 377 11,500 2,400 Climbing Los Angeles Center
06:14PM 34.0811 -118.9278 296° West  Level FlightAware Approximate
06:14PM 33.8617 -118.9003 279° West 344 396 14,700  Level Los Angeles Center
06:15PM 33.9286 -118.9856 313° West 350 403 17,300 2,400 Climbing Los Angeles Center
06:16PM 33.9964 -119.0769 312° West 363 418 19,700 2,280 Climbing Los Angeles Center
06:17PM 34.0667 -119.1725 312° West 378 435 22,100 2,100 Climbing Los Angeles Center
06:18PM 34.1372 -119.2689 312° West 385 443 24,100 1,980 Climbing Los Angeles Center
06:19PM 34.2261 -119.3886 312° West 397 457 26,300 1,800 Climbing Los Angeles Center
06:20PM 34.3031 -119.4903 313° West 405 466 27,900 1,500 Climbing Los Angeles Center
06:21PM 34.3800 -119.5942 312° West 413 475 29,500 1,620 Climbing Los Angeles Center
06:22PM 34.4578 -119.7011 311° West 420 483 31,300 1,680 Climbing Los Angeles Center
06:23PM 34.5358 -119.8008 314° West 413 475 33,000 1,500 Climbing Los Angeles Center
06:24PM 34.6392 -119.8764 329° Northwest 420 483 34,400 1,380 Climbing Los Angeles Center
06:25PM 34.7517 -119.9700 326° Northwest 412 474 35,900 720 Climbing Los Angeles Center
06:26PM 34.8467 -120.0494 326° Northwest 415 478 36,000  Climbing Los Angeles Center
06:27PM 34.9331 -120.1222 325° Northwest 415 478 36,000  Level Los Angeles Center
06:28PM 35.0281 -120.2006 326° Northwest 416 479 36,000  Level Los Angeles Center
06:29PM 35.1417 -120.2958 326° Northwest 416 479 36,000  Level Los Angeles Center
06:30PM 35.2367 -120.3739 326° Northwest 414 476 36,000  Level Los Angeles Center
06:31PM 35.3286 -120.4539 325° Northwest 407 468 36,000  Level Los Angeles Center
06:32PM 35.3828 -120.5019 324° Northwest 417 480 36,000  Level Oakland Center
06:33PM 35.4789 -120.5825 326° Northwest 413 475 36,000  Level Oakland Center
06:34PM 35.5722 -120.6617 325° Northwest 407 468 36,000  Level Oakland Center
06:35PM 35.6661 -120.7417 325° Northwest 409 471 36,000  Level Oakland Center
06:36PM 35.7589 -120.8211 325° Northwest 408 470 36,000  Level Oakland Center
06:37PM 35.8508 -120.9000 325° Northwest 406 467 36,000 -960 Level Oakland Center
06:38PM 35.9619 -120.9964 325° Northwest 406 467 34,100 -2,460 Descending Oakland Center
06:39PM 36.0561 -121.0753 326° Northwest 408 470 31,000 -2,880 Descending Oakland Center
06:40PM 36.1500 -121.1558 325° Northwest 411 473 28,200 -2,580 Descending Oakland Center
06:41PM 36.2397 -121.2361 324° Northwest 403 464 25,800 -2,460 Descending Oakland Center
06:42PM 36.3292 -121.3111 326° Northwest 394 453 23,200 -2,400 Descending Oakland Center
06:43PM 36.4114 -121.3861 324° Northwest 375 432 20,900 -2,400 Descending Oakland Center
06:44PM 36.5025 -121.4394 335° Northwest 375 432 18,400 -2,460 Descending Oakland Center
06:45PM 36.6019 -121.4586 351° North 371 427 15,900 -2,640 Descending Oakland Center
06:46PM 36.7175 -121.4881 348° North 358 412 13,000 -2,520 Descending Oakland Center
06:47PM 36.8103 -121.5103 349° North 344 396 10,800 -1,500 Descending Oakland Center
06:48PM 36.8986 -121.5303 350° North 321 369 10,000 -1,200 Descending Oakland Center
06:49PM 36.9683 -121.5731 334° Northwest 293 337 8,400 -1,260 Descending Oakland Center
06:50PM 37.0331 -121.6208 329° Northwest 276 318 7,500 -1,380 Descending Oakland Center
06:51PM 37.1000 -121.6675 331° Northwest 275 316 5,700 -1,320 Descending Oakland Center
06:52PM 37.1833 -121.7333 328° Northwest 242 278 4,700 -1,260 Descending Northern Cal TRACON
06:53PM 37.2167 -121.7833 310° West 253 291 3,200 -1,380 Descending Northern Cal TRACON
06:54PM 37.2833 -121.8333 329° Northwest 209 241 2,000 -840 Descending Northern Cal TRACON
06:55PM 37.3011 -121.8642 306° West 211 243 1,500 -720 Descending Oakland Center
06:56PM 37.3306 -121.8947 320° Northwest 166 191 700 -840 Descending Oakland Center
06:59PM 37.3500 -121.9167 North  Level FlightAware Approximate
07:06PM 37.3627 -121.9291 North  Level Estimated